sensor_id;sensor_type;location;lat;lon;timestamp;pressure;altitude;pressure_sealevel;temperature;humidity
73941;BME280;62294;48.554;10.202;2022-08-21T00:02:15;96247.00;;;12.90;90.97
73941;BME280;62294;48.554;10.202;2022-08-21T00:04:43;96250.00;;;12.81;91.10
73941;BME280;62294;48.554;10.202;2022-08-21T00:07:22;96247.78;;;12.78;90.96
73941;BME280;62294;48.554;10.202;2022-08-21T00:09:50;96246.19;;;12.77;91.34
73941;BME280;62294;48.554;10.202;2022-08-21T00:12:17;96239.22;;;12.76;91.99
73941;BME280;62294;48.554;10.202;2022-08-21T00:14:44;96242.91;;;12.75;92.18
73941;BME280;62294;48.554;10.202;2022-08-21T00:17:11;96244.91;;;12.92;92.12
73941;BME280;62294;48.554;10.202;2022-08-21T00:19:38;96234.63;;;12.95;91.44
73941;BME280;62294;48.554;10.202;2022-08-21T00:22:04;96232.97;;;12.94;91.17
73941;BME280;62294;48.554;10.202;2022-08-21T00:24:31;96240.88;;;12.89;91.05
73941;BME280;62294;48.554;10.202;2022-08-21T00:26:58;96234.50;;;12.90;90.89
73941;BME280;62294;48.554;10.202;2022-08-21T00:29:25;96235.19;;;12.86;90.51
73941;BME280;62294;48.554;10.202;2022-08-21T00:31:52;96223.16;;;12.65;89.90
73941;BME280;62294;48.554;10.202;2022-08-21T00:34:18;96229.78;;;12.62;89.71
73941;BME280;62294;48.554;10.202;2022-08-21T00:36:44;96232.19;;;12.52;90.15
73941;BME280;62294;48.554;10.202;2022-08-21T00:39:12;96219.31;;;12.49;90.58
73941;BME280;62294;48.554;10.202;2022-08-21T00:41:39;96228.31;;;12.48;90.32
73941;BME280;62294;48.554;10.202;2022-08-21T00:44:08;96231.66;;;12.44;89.25
73941;BME280;62294;48.554;10.202;2022-08-21T00:46:35;96227.16;;;12.44;90.62
73941;BME280;62294;48.554;10.202;2022-08-21T00:49:03;96223.56;;;12.39;89.61
73941;BME280;62294;48.554;10.202;2022-08-21T00:51:57;96215.50;;;12.27;90.10
73941;BME280;62294;48.554;10.202;2022-08-21T00:54:28;96218.28;;;12.32;91.37
73941;BME280;62294;48.554;10.202;2022-08-21T00:56:59;96219.50;;;12.36;90.28
73941;BME280;62294;48.554;10.202;2022-08-21T00:59:27;96225.59;;;12.25;89.82
73941;BME280;62294;48.554;10.202;2022-08-21T01:01:55;96232.84;;;12.18;90.04
73941;BME280;62294;48.554;10.202;2022-08-21T01:04:22;96227.97;;;12.15;90.43
73941;BME280;62294;48.554;10.202;2022-08-21T01:06:49;96220.94;;;12.21;89.75
73941;BME280;62294;48.554;10.202;2022-08-21T01:09:17;96226.06;;;12.04;90.01
73941;BME280;62294;48.554;10.202;2022-08-21T01:11:45;96226.94;;;11.98;90.52
73941;BME280;62294;48.554;10.202;2022-08-21T01:14:12;96215.25;;;11.99;90.92
73941;BME280;62294;48.554;10.202;2022-08-21T01:16:42;96213.50;;;11.93;90.41
73941;BME280;62294;48.554;10.202;2022-08-21T01:19:10;96215.09;;;11.94;90.44
73941;BME280;62294;48.554;10.202;2022-08-21T01:21:38;96220.06;;;11.90;90.57
73941;BME280;62294;48.554;10.202;2022-08-21T01:24:05;96205.78;;;11.85;90.45
73941;BME280;62294;48.554;10.202;2022-08-21T01:26:35;96211.69;;;11.87;90.01
73941;BME280;62294;48.554;10.202;2022-08-21T01:31:52;96209.94;;;11.81;89.59
73941;BME280;62294;48.554;10.202;2022-08-21T01:34:18;96202.09;;;11.68;89.67
73941;BME280;62294;48.554;10.202;2022-08-21T01:36:45;96212.56;;;11.63;89.61
73941;BME280;62294;48.554;10.202;2022-08-21T01:39:12;96204.00;;;11.61;90.23
73941;BME280;62294;48.554;10.202;2022-08-21T01:41:38;96211.81;;;11.56;90.02
73941;BME280;62294;48.554;10.202;2022-08-21T01:44:05;96215.88;;;11.58;90.39
73941;BME280;62294;48.554;10.202;2022-08-21T01:46:32;96202.94;;;11.62;89.78
73941;BME280;62294;48.554;10.202;2022-08-21T01:48:59;96212.19;;;11.59;90.04
73941;BME280;62294;48.554;10.202;2022-08-21T01:51:25;96225.03;;;11.44;89.97
73941;BME280;62294;48.554;10.202;2022-08-21T01:53:52;96214.22;;;11.39;89.82
73941;BME280;62294;48.554;10.202;2022-08-21T01:56:18;96211.56;;;11.39;90.44
73941;BME280;62294;48.554;10.202;2022-08-21T01:58:46;96212.63;;;11.38;89.38
73941;BME280;62294;48.554;10.202;2022-08-21T02:01:13;96218.91;;;11.43;89.74
73941;BME280;62294;48.554;10.202;2022-08-21T02:03:40;96216.53;;;11.35;89.73
73941;BME280;62294;48.554;10.202;2022-08-21T02:06:13;96211.63;;;11.32;89.94
73941;BME280;62294;48.554;10.202;2022-08-21T02:08:40;96207.38;;;11.31;89.72
73941;BME280;62294;48.554;10.202;2022-08-21T02:11:08;96210.22;;;11.30;89.67
73941;BME280;62294;48.554;10.202;2022-08-21T02:13:34;96204.75;;;11.25;90.24
73941;BME280;62294;48.554;10.202;2022-08-21T02:16:00;96201.38;;;11.11;90.51
73941;BME280;62294;48.554;10.202;2022-08-21T02:18:27;96204.38;;;11.21;89.74
73941;BME280;62294;48.554;10.202;2022-08-21T02:20:55;96198.31;;;11.14;90.11
73941;BME280;62294;48.554;10.202;2022-08-21T02:23:23;96197.53;;;11.07;90.29
73941;BME280;62294;48.554;10.202;2022-08-21T02:25:52;96206.34;;;11.08;91.07
73941;BME280;62294;48.554;10.202;2022-08-21T02:28:19;96185.56;;;10.98;90.22
73941;BME280;62294;48.554;10.202;2022-08-21T02:30:47;96193.53;;;10.98;91.00
73941;BME280;62294;48.554;10.202;2022-08-21T02:33:14;96191.31;;;10.95;90.33
73941;BME280;62294;48.554;10.202;2022-08-21T02:35:42;96186.22;;;10.94;90.47
73941;BME280;62294;48.554;10.202;2022-08-21T02:38:13;96186.22;;;10.94;89.98
73941;BME280;62294;48.554;10.202;2022-08-21T02:40:42;96190.28;;;10.96;89.56
73941;BME280;62294;48.554;10.202;2022-08-21T02:43:14;96190.72;;;10.93;89.74
73941;BME280;62294;48.554;10.202;2022-08-21T02:45:41;96183.63;;;10.87;90.38
73941;BME280;62294;48.554;10.202;2022-08-21T02:48:10;96185.69;;;10.85;90.03
73941;BME280;62294;48.554;10.202;2022-08-21T02:50:41;96183.66;;;10.81;90.30
73941;BME280;62294;48.554;10.202;2022-08-21T02:53:11;96195.97;;;10.75;90.28
73941;BME280;62294;48.554;10.202;2022-08-21T02:55:47;96196.19;;;10.74;89.98
73941;BME280;62294;48.554;10.202;2022-08-21T02:58:16;96194.78;;;10.71;90.69
73941;BME280;62294;48.554;10.202;2022-08-21T03:00:43;96192.94;;;10.72;90.49
73941;BME280;62294;48.554;10.202;2022-08-21T03:03:10;96187.84;;;10.70;90.42
73941;BME280;62294;48.554;10.202;2022-08-21T03:05:37;96188.03;;;10.68;90.49
73941;BME280;62294;48.554;10.202;2022-08-21T03:08:06;96190.72;;;10.68;89.84
73941;BME280;62294;48.554;10.202;2022-08-21T03:10:38;96186.47;;;10.61;89.86
73941;BME280;62294;48.554;10.202;2022-08-21T03:13:06;96181.19;;;10.54;90.03
73941;BME280;62294;48.554;10.202;2022-08-21T03:15:33;96184.66;;;10.55;89.86
73941;BME280;62294;48.554;10.202;2022-08-21T03:18:00;96187.69;;;10.65;90.58
73941;BME280;62294;48.554;10.202;2022-08-21T03:20:28;96187.22;;;10.68;91.12
73941;BME280;62294;48.554;10.202;2022-08-21T03:22:55;96188.97;;;10.56;91.32
73941;BME280;62294;48.554;10.202;2022-08-21T03:25:25;96196.91;;;10.62;91.05
73941;BME280;62294;48.554;10.202;2022-08-21T03:28:09;96197.06;;;10.67;90.67
73941;BME280;62294;48.554;10.202;2022-08-21T03:30:41;96185.97;;;10.70;90.45
73941;BME280;62294;48.554;10.202;2022-08-21T03:33:08;96198.72;;;10.62;90.35
73941;BME280;62294;48.554;10.202;2022-08-21T03:35:38;96193.84;;;10.59;89.68
73941;BME280;62294;48.554;10.202;2022-08-21T03:38:05;96195.53;;;10.53;90.06
73941;BME280;62294;48.554;10.202;2022-08-21T03:40:31;96199.66;;;10.49;90.10
73941;BME280;62294;48.554;10.202;2022-08-21T03:42:58;96195.78;;;10.45;89.89
73941;BME280;62294;48.554;10.202;2022-08-21T03:45:25;96198.59;;;10.50;89.73
73941;BME280;62294;48.554;10.202;2022-08-21T03:47:53;96194.81;;;10.40;89.63
73941;BME280;62294;48.554;10.202;2022-08-21T03:50:20;96193.59;;;10.36;89.99
73941;BME280;62294;48.554;10.202;2022-08-21T03:52:46;96195.25;;;10.30;90.27
73941;BME280;62294;48.554;10.202;2022-08-21T03:55:13;96206.75;;;10.24;89.75
73941;BME280;62294;48.554;10.202;2022-08-21T03:57:39;96203.06;;;10.25;90.06
73941;BME280;62294;48.554;10.202;2022-08-21T04:00:06;96199.34;;;10.33;90.42
73941;BME280;62294;48.554;10.202;2022-08-21T04:02:35;96203.41;;;10.35;90.44
73941;BME280;62294;48.554;10.202;2022-08-21T04:05:02;96209.56;;;10.36;90.20
73941;BME280;62294;48.554;10.202;2022-08-21T04:07:29;96210.16;;;10.38;89.64
73941;BME280;62294;48.554;10.202;2022-08-21T04:09:56;96214.69;;;10.31;89.68
73941;BME280;62294;48.554;10.202;2022-08-21T04:12:22;96212.84;;;10.25;89.89
73941;BME280;62294;48.554;10.202;2022-08-21T04:14:49;96214.09;;;10.29;89.28
73941;BME280;62294;48.554;10.202;2022-08-21T04:17:18;96217.16;;;10.26;90.09
73941;BME280;62294;48.554;10.202;2022-08-21T04:19:45;96212.06;;;10.18;90.33
73941;BME280;62294;48.554;10.202;2022-08-21T04:22:18;96219.88;;;10.13;90.60
73941;BME280;62294;48.554;10.202;2022-08-21T04:24:45;96216.19;;;10.14;90.42
73941;BME280;62294;48.554;10.202;2022-08-21T04:27:11;96216.16;;;10.20;90.15
73941;BME280;62294;48.554;10.202;2022-08-21T04:29:38;96219.81;;;10.26;90.20
73941;BME280;62294;48.554;10.202;2022-08-21T04:32:06;96225.50;;;10.29;90.01
73941;BME280;62294;48.554;10.202;2022-08-21T04:34:33;96227.78;;;10.26;89.40
73941;BME280;62294;48.554;10.202;2022-08-21T04:36:59;96225.13;;;10.26;89.47
73941;BME280;62294;48.554;10.202;2022-08-21T04:39:25;96225.53;;;10.23;89.31
73941;BME280;62294;48.554;10.202;2022-08-21T04:41:55;96235.00;;;10.12;89.80
73941;BME280;62294;48.554;10.202;2022-08-21T04:44:21;96234.19;;;10.12;90.23
73941;BME280;62294;48.554;10.202;2022-08-21T04:46:48;96239.50;;;10.12;89.57
73941;BME280;62294;48.554;10.202;2022-08-21T04:49:15;96242.34;;;10.17;90.22
73941;BME280;62294;48.554;10.202;2022-08-21T04:51:41;96239.00;;;10.28;89.82
73941;BME280;62294;48.554;10.202;2022-08-21T04:54:14;96239.97;;;10.40;90.09
73941;BME280;62294;48.554;10.202;2022-08-21T04:56:53;96243.56;;;10.52;90.35
73941;BME280;62294;48.554;10.202;2022-08-21T04:59:38;96249.00;;;10.70;90.29
73941;BME280;62294;48.554;10.202;2022-08-21T05:02:07;96241.13;;;10.82;89.27
73941;BME280;62294;48.554;10.202;2022-08-21T05:04:37;96246.78;;;10.92;89.36
73941;BME280;62294;48.554;10.202;2022-08-21T05:07:09;96251.03;;;10.99;89.48
73941;BME280;62294;48.554;10.202;2022-08-21T05:09:37;96252.38;;;11.08;89.28
73941;BME280;62294;48.554;10.202;2022-08-21T05:12:04;96246.59;;;11.18;88.92
73941;BME280;62294;48.554;10.202;2022-08-21T05:14:32;96251.84;;;11.24;89.53
73941;BME280;62294;48.554;10.202;2022-08-21T05:16:59;96250.25;;;11.41;89.85
73941;BME280;62294;48.554;10.202;2022-08-21T05:19:25;96251.00;;;11.49;88.97
73941;BME280;62294;48.554;10.202;2022-08-21T05:21:52;96257.59;;;11.64;90.79
73941;BME280;62294;48.554;10.202;2022-08-21T05:24:19;96248.09;;;11.75;91.74
73941;BME280;62294;48.554;10.202;2022-08-21T05:26:45;96250.97;;;11.73;92.62
73941;BME280;62294;48.554;10.202;2022-08-21T05:29:15;96252.06;;;11.66;92.73
73941;BME280;62294;48.554;10.202;2022-08-21T05:31:42;96251.13;;;11.78;93.25
73941;BME280;62294;48.554;10.202;2022-08-21T05:34:09;96263.19;;;11.81;92.99
73941;BME280;62294;48.554;10.202;2022-08-21T05:36:36;96254.47;;;11.92;93.27
73941;BME280;62294;48.554;10.202;2022-08-21T05:39:02;96255.34;;;11.86;92.95
73941;BME280;62294;48.554;10.202;2022-08-21T05:41:29;96268.88;;;11.84;92.81
73941;BME280;62294;48.554;10.202;2022-08-21T05:43:59;96261.72;;;11.85;92.79
73941;BME280;62294;48.554;10.202;2022-08-21T05:46:26;96259.19;;;11.90;93.40
73941;BME280;62294;48.554;10.202;2022-08-21T05:48:52;96250.22;;;12.02;93.26
73941;BME280;62294;48.554;10.202;2022-08-21T05:51:19;96250.28;;;12.14;92.99
73941;BME280;62294;48.554;10.202;2022-08-21T05:53:45;96252.09;;;12.20;92.78
73941;BME280;62294;48.554;10.202;2022-08-21T05:56:12;96248.66;;;12.31;91.84
73941;BME280;62294;48.554;10.202;2022-08-21T05:58:40;96250.91;;;12.46;91.92
73941;BME280;62294;48.554;10.202;2022-08-21T06:01:06;96248.66;;;12.61;91.26
73941;BME280;62294;48.554;10.202;2022-08-21T06:03:37;96247.91;;;13.13;91.09
73941;BME280;62294;48.554;10.202;2022-08-21T06:06:04;96251.19;;;13.73;87.49
73941;BME280;62294;48.554;10.202;2022-08-21T06:08:31;96245.06;;;14.12;85.55
73941;BME280;62294;48.554;10.202;2022-08-21T06:10:59;96239.59;;;14.59;82.56
73941;BME280;62294;48.554;10.202;2022-08-21T06:13:27;96243.59;;;15.01;81.27
73941;BME280;62294;48.554;10.202;2022-08-21T06:16:11;96243.47;;;15.57;79.52
73941;BME280;62294;48.554;10.202;2022-08-21T06:18:42;96251.50;;;15.57;79.13
73941;BME280;62294;48.554;10.202;2022-08-21T06:21:09;96246.88;;;15.91;77.34
73941;BME280;62294;48.554;10.202;2022-08-21T06:23:37;96246.88;;;15.91;76.71
73941;BME280;62294;48.554;10.202;2022-08-21T06:26:06;96242.00;;;16.26;76.96
73941;BME280;62294;48.554;10.202;2022-08-21T06:28:33;96244.19;;;16.99;74.52
73941;BME280;62294;48.554;10.202;2022-08-21T06:31:00;96247.69;;;17.32;72.57
73941;BME280;62294;48.554;10.202;2022-08-21T06:33:27;96239.81;;;17.94;71.66
73941;BME280;62294;48.554;10.202;2022-08-21T06:35:58;96238.25;;;18.03;70.85
73941;BME280;62294;48.554;10.202;2022-08-21T06:38:24;96242.50;;;17.57;69.69
73941;BME280;62294;48.554;10.202;2022-08-21T06:40:51;96243.25;;;18.36;69.22
73941;BME280;62294;48.554;10.202;2022-08-21T06:43:18;96238.56;;;18.68;66.92
73941;BME280;62294;48.554;10.202;2022-08-21T06:45:44;96238.31;;;18.80;66.82
73941;BME280;62294;48.554;10.202;2022-08-21T06:48:12;96244.84;;;19.14;66.42
73941;BME280;62294;48.554;10.202;2022-08-21T06:50:44;96238.44;;;19.45;66.21
73941;BME280;62294;48.554;10.202;2022-08-21T06:53:13;96239.66;;;18.77;65.72
73941;BME280;62294;48.554;10.202;2022-08-21T06:55:40;96245.09;;;19.12;64.80
73941;BME280;62294;48.554;10.202;2022-08-21T06:58:07;96236.75;;;19.24;64.11
73941;BME280;62294;48.554;10.202;2022-08-21T07:00:38;96240.28;;;19.75;63.47
73941;BME280;62294;48.554;10.202;2022-08-21T07:03:05;96240.81;;;19.82;63.93
73941;BME280;62294;48.554;10.202;2022-08-21T07:05:32;96240.53;;;18.98;66.20
73941;BME280;62294;48.554;10.202;2022-08-21T07:07:58;96244.25;;;20.23;62.29
73941;BME280;62294;48.554;10.202;2022-08-21T07:10:26;96232.03;;;20.40;62.22
73941;BME280;62294;48.554;10.202;2022-08-21T07:12:53;96241.84;;;20.80;59.95
73941;BME280;62294;48.554;10.202;2022-08-21T07:15:27;96227.53;;;20.85;60.17
73941;BME280;62294;48.554;10.202;2022-08-21T07:17:55;96239.63;;;20.33;59.33
73941;BME280;62294;48.554;10.202;2022-08-21T07:20:22;96242.19;;;19.54;61.06
73941;BME280;62294;48.554;10.202;2022-08-21T07:22:49;96237.78;;;20.14;63.09
73941;BME280;62294;48.554;10.202;2022-08-21T07:25:16;96227.28;;;21.25;58.95
73941;BME280;62294;48.554;10.202;2022-08-21T07:27:42;96232.09;;;21.96;57.90
73941;BME280;62294;48.554;10.202;2022-08-21T07:30:09;96227.00;;;21.89;55.66
73941;BME280;62294;48.554;10.202;2022-08-21T07:32:36;96226.50;;;21.82;56.82
73941;BME280;62294;48.554;10.202;2022-08-21T07:35:03;96217.25;;;22.40;54.95
73941;BME280;62294;48.554;10.202;2022-08-21T07:37:30;96223.91;;;21.04;57.42
73941;BME280;62294;48.554;10.202;2022-08-21T07:39:56;96225.06;;;22.18;55.64
73941;BME280;62294;48.554;10.202;2022-08-21T07:42:23;96227.97;;;23.11;52.16
73941;BME280;62294;48.554;10.202;2022-08-21T07:44:50;96216.97;;;23.21;52.01
73941;BME280;62294;48.554;10.202;2022-08-21T07:47:21;96224.94;;;24.15;49.31
73941;BME280;62294;48.554;10.202;2022-08-21T07:50:08;96210.44;;;23.73;49.62
73941;BME280;62294;48.554;10.202;2022-08-21T07:52:35;96213.88;;;25.51;47.03
73941;BME280;62294;48.554;10.202;2022-08-21T07:55:01;96214.88;;;24.29;47.79
73941;BME280;62294;48.554;10.202;2022-08-21T07:57:31;96211.84;;;24.71;47.81
73941;BME280;62294;48.554;10.202;2022-08-21T07:59:58;96214.19;;;25.49;45.71
73941;BME280;62294;48.554;10.202;2022-08-21T08:02:27;96212.19;;;23.96;48.68
73941;BME280;62294;48.554;10.202;2022-08-21T08:04:58;96200.81;;;24.27;48.27
73941;BME280;62294;48.554;10.202;2022-08-21T08:07:25;96218.78;;;24.91;47.86
73941;BME280;62294;48.554;10.202;2022-08-21T08:09:52;96202.84;;;23.43;51.85
73941;BME280;62294;48.554;10.202;2022-08-21T08:12:18;96203.47;;;23.99;50.23
73941;BME280;62294;48.554;10.202;2022-08-21T08:14:47;96208.75;;;26.02;44.91
73941;BME280;62294;48.554;10.202;2022-08-21T08:17:13;96204.00;;;27.12;41.36
73941;BME280;62294;48.554;10.202;2022-08-21T08:19:40;96197.50;;;26.65;41.44
73941;BME280;62294;48.554;10.202;2022-08-21T08:22:14;96212.31;;;25.80;44.76
73941;BME280;62294;48.554;10.202;2022-08-21T08:24:40;96203.72;;;25.87;44.10
73941;BME280;62294;48.554;10.202;2022-08-21T08:27:08;96195.72;;;26.60;42.13
73941;BME280;62294;48.554;10.202;2022-08-21T08:29:34;96198.91;;;24.27;49.01
73941;BME280;62294;48.554;10.202;2022-08-21T08:32:02;96196.63;;;25.19;46.53
73941;BME280;62294;48.554;10.202;2022-08-21T08:34:28;96189.06;;;28.33;39.97
73941;BME280;62294;48.554;10.202;2022-08-21T08:36:57;96196.13;;;24.95;46.82
73941;BME280;62294;48.554;10.202;2022-08-21T08:39:25;96198.56;;;24.83;47.87
73941;BME280;62294;48.554;10.202;2022-08-21T08:42:04;96191.88;;;23.48;49.60
73941;BME280;62294;48.554;10.202;2022-08-21T08:45:02;96184.81;;;25.60;44.14
73941;BME280;62294;48.554;10.202;2022-08-21T08:47:30;96189.75;;;26.58;43.69
73941;BME280;62294;48.554;10.202;2022-08-21T08:50:08;96187.28;;;27.73;39.83
73941;BME280;62294;48.554;10.202;2022-08-21T08:52:43;96196.41;;;27.77;39.01
73941;BME280;62294;48.554;10.202;2022-08-21T08:55:23;96187.91;;;27.70;40.70
73941;BME280;62294;48.554;10.202;2022-08-21T08:57:53;96178.72;;;30.84;33.21
73941;BME280;62294;48.554;10.202;2022-08-21T09:00:23;96186.63;;;31.78;30.39
73941;BME280;62294;48.554;10.202;2022-08-21T09:02:53;96178.00;;;31.79;29.66
73941;BME280;62294;48.554;10.202;2022-08-21T09:05:58;96186.00;;;31.96;28.47
73941;BME280;62294;48.554;10.202;2022-08-21T09:08:46;96179.78;;;31.32;26.27
73941;BME280;62294;48.554;10.202;2022-08-21T09:11:25;96174.16;;;30.40;27.25
73941;BME280;62294;48.554;10.202;2022-08-21T09:14:24;96167.19;;;31.43;26.76
73941;BME280;62294;48.554;10.202;2022-08-21T09:25:08;96171.72;;;30.14;30.34
73941;BME280;62294;48.554;10.202;2022-08-21T09:27:37;96168.31;;;30.30;29.43
73941;BME280;62294;48.554;10.202;2022-08-21T09:30:07;96169.16;;;30.54;29.32
73941;BME280;62294;48.554;10.202;2022-08-21T09:32:36;96163.84;;;31.10;29.15
73941;BME280;62294;48.554;10.202;2022-08-21T09:37:31;96155.41;;;30.78;28.41
73941;BME280;62294;48.554;10.202;2022-08-21T09:39:58;96161.63;;;32.42;25.38
73941;BME280;62294;48.554;10.202;2022-08-21T09:42:27;96160.06;;;31.97;25.93
73941;BME280;62294;48.554;10.202;2022-08-21T09:45:11;96161.91;;;31.93;27.19
73941;BME280;62294;48.554;10.202;2022-08-21T09:47:38;96150.88;;;30.34;29.58
73941;BME280;62294;48.554;10.202;2022-08-21T09:50:31;96161.75;;;29.98;30.70
73941;BME280;62294;48.554;10.202;2022-08-21T09:52:59;96152.88;;;29.68;30.75
73941;BME280;62294;48.554;10.202;2022-08-21T09:58:35;96150.13;;;28.36;31.09
73941;BME280;62294;48.554;10.202;2022-08-21T10:01:04;96149.56;;;28.80;31.02
73941;BME280;62294;48.554;10.202;2022-08-21T10:03:32;96147.19;;;28.99;30.08
73941;BME280;62294;48.554;10.202;2022-08-21T10:06:02;96148.47;;;27.51;32.16
73941;BME280;62294;48.554;10.202;2022-08-21T10:08:39;96143.66;;;27.22;33.33
73941;BME280;62294;48.554;10.202;2022-08-21T10:11:13;96137.88;;;26.24;35.02
73941;BME280;62294;48.554;10.202;2022-08-21T10:13:54;96138.72;;;25.94;36.19
73941;BME280;62294;48.554;10.202;2022-08-21T10:22:06;96136.81;;;28.63;31.92
73941;BME280;62294;48.554;10.202;2022-08-21T10:24:50;96133.41;;;27.91;32.52
73941;BME280;62294;48.554;10.202;2022-08-21T10:27:24;96136.06;;;28.17;31.54
73941;BME280;62294;48.554;10.202;2022-08-21T10:29:58;96137.13;;;28.33;33.44
73941;BME280;62294;48.554;10.202;2022-08-21T10:38:16;96130.31;;;27.20;34.26
73941;BME280;62294;48.554;10.202;2022-08-21T10:47:04;96123.75;;;30.08;27.54
73941;BME280;62294;48.554;10.202;2022-08-21T10:57:40;96125.75;;;28.22;30.17
73941;BME280;62294;48.554;10.202;2022-08-21T11:00:15;96128.25;;;28.06;30.34
73941;BME280;62294;48.554;10.202;2022-08-21T11:02:49;96131.44;;;26.77;32.68
73941;BME280;62294;48.554;10.202;2022-08-21T11:05:41;96129.06;;;27.98;32.39
73941;BME280;62294;48.554;10.202;2022-08-21T11:08:39;96124.25;;;29.78;29.95
73941;BME280;62294;48.554;10.202;2022-08-21T11:11:13;96117.53;;;28.80;29.92
73941;BME280;62294;48.554;10.202;2022-08-21T11:13:54;96115.41;;;30.17;27.70
73941;BME280;62294;48.554;10.202;2022-08-21T11:16:42;96111.44;;;27.79;30.07
73941;BME280;62294;48.554;10.202;2022-08-21T11:22:23;96103.13;;;29.33;28.50
73941;BME280;62294;48.554;10.202;2022-08-21T11:25:00;96109.94;;;28.86;27.75
73941;BME280;62294;48.554;10.202;2022-08-21T11:27:52;96108.84;;;29.40;28.40
73941;BME280;62294;48.554;10.202;2022-08-21T11:30:21;96102.63;;;30.09;26.55
73941;BME280;62294;48.554;10.202;2022-08-21T11:36:20;96093.53;;;32.54;23.02
73941;BME280;62294;48.554;10.202;2022-08-21T11:41:37;96092.66;;;32.35;23.30
73941;BME280;62294;48.554;10.202;2022-08-21T11:44:38;96089.06;;;33.99;21.76
73941;BME280;62294;48.554;10.202;2022-08-21T11:50:30;96071.75;;;33.80;22.36
73941;BME280;62294;48.554;10.202;2022-08-21T11:53:14;96073.59;;;34.92;21.24
73941;BME280;62294;48.554;10.202;2022-08-21T11:55:54;96075.81;;;35.10;21.62
73941;BME280;62294;48.554;10.202;2022-08-21T11:58:44;96086.09;;;34.08;21.21
73941;BME280;62294;48.554;10.202;2022-08-21T12:01:22;96073.78;;;32.68;24.62
73941;BME280;62294;48.554;10.202;2022-08-21T12:04:00;96081.69;;;29.92;27.17
73941;BME280;62294;48.554;10.202;2022-08-21T12:06:37;96079.34;;;29.58;27.60
73941;BME280;62294;48.554;10.202;2022-08-21T12:09:10;96074.56;;;28.81;29.06
73941;BME280;62294;48.554;10.202;2022-08-21T12:11:50;96067.75;;;27.70;30.77
73941;BME280;62294;48.554;10.202;2022-08-21T12:14:18;96070.94;;;27.09;31.61
73941;BME280;62294;48.554;10.202;2022-08-21T12:16:47;96063.44;;;27.06;31.06
73941;BME280;62294;48.554;10.202;2022-08-21T12:24:50;96064.56;;;26.96;30.98
73941;BME280;62294;48.554;10.202;2022-08-21T12:29:49;96057.22;;;27.60;30.04
73941;BME280;62294;48.554;10.202;2022-08-21T12:34:50;96058.22;;;27.30;29.98
73941;BME280;62294;48.554;10.202;2022-08-21T12:37:44;96062.97;;;24.32;37.91
73941;BME280;62294;48.554;10.202;2022-08-21T12:40:21;96049.66;;;25.02;36.75
73941;BME280;62294;48.554;10.202;2022-08-21T12:42:52;96054.94;;;25.29;35.68
73941;BME280;62294;48.554;10.202;2022-08-21T12:45:28;96051.28;;;24.45;37.21
73941;BME280;62294;48.554;10.202;2022-08-21T12:48:10;96050.13;;;23.97;37.72
73941;BME280;62294;48.554;10.202;2022-08-21T12:50:49;96051.72;;;23.84;37.71
73941;BME280;62294;48.554;10.202;2022-08-21T12:53:43;96052.38;;;25.02;37.67
73941;BME280;62294;48.554;10.202;2022-08-21T12:56:14;96045.91;;;26.47;33.54
73941;BME280;62294;48.554;10.202;2022-08-21T12:58:49;96042.81;;;27.34;32.34
73941;BME280;62294;48.554;10.202;2022-08-21T13:01:35;96033.41;;;28.36;30.26
73941;BME280;62294;48.554;10.202;2022-08-21T13:04:10;96031.63;;;28.61;30.48
73941;BME280;62294;48.554;10.202;2022-08-21T13:06:41;96030.16;;;29.49;28.74
73941;BME280;62294;48.554;10.202;2022-08-21T13:09:20;96034.22;;;30.00;28.08
73941;BME280;62294;48.554;10.202;2022-08-21T13:11:51;96033.47;;;28.90;29.04
73941;BME280;62294;48.554;10.202;2022-08-21T13:14:29;96021.72;;;30.27;26.27
73941;BME280;62294;48.554;10.202;2022-08-21T13:16:58;96030.97;;;28.35;29.56
73941;BME280;62294;48.554;10.202;2022-08-21T13:19:26;96036.44;;;29.17;27.80
73941;BME280;62294;48.554;10.202;2022-08-21T13:21:52;96034.50;;;29.63;27.74
73941;BME280;62294;48.554;10.202;2022-08-21T13:24:23;96038.78;;;27.86;31.74
73941;BME280;62294;48.554;10.202;2022-08-21T13:32:41;96034.81;;;25.70;36.05
73941;BME280;62294;48.554;10.202;2022-08-21T13:35:15;96036.63;;;25.21;35.16
73941;BME280;62294;48.554;10.202;2022-08-21T13:37:45;96037.34;;;24.83;38.69
73941;BME280;62294;48.554;10.202;2022-08-21T13:40:19;96036.56;;;24.82;38.43
73941;BME280;62294;48.554;10.202;2022-08-21T13:42:47;96034.63;;;24.83;39.60
73941;BME280;62294;48.554;10.202;2022-08-21T13:45:20;96036.28;;;24.70;41.37
73941;BME280;62294;48.554;10.202;2022-08-21T13:47:47;96037.69;;;24.67;42.61
73941;BME280;62294;48.554;10.202;2022-08-21T13:50:16;96033.06;;;24.46;41.13
73941;BME280;62294;48.554;10.202;2022-08-21T13:53:21;96028.50;;;24.55;39.86
73941;BME280;62294;48.554;10.202;2022-08-21T13:55:41;96035.47;;;24.47;38.59
73941;BME280;62294;48.554;10.202;2022-08-21T13:58:10;96031.03;;;24.74;37.73
73941;BME280;62294;48.554;10.202;2022-08-21T14:00:48;96022.66;;;25.36;38.86
73941;BME280;62294;48.554;10.202;2022-08-21T14:03:35;96027.34;;;26.49;34.20
73941;BME280;62294;48.554;10.202;2022-08-21T14:06:17;96027.59;;;25.34;37.61
73941;BME280;62294;48.554;10.202;2022-08-21T14:08:51;96033.19;;;24.41;37.85
73941;BME280;62294;48.554;10.202;2022-08-21T14:11:20;96035.00;;;24.32;38.03
73941;BME280;62294;48.554;10.202;2022-08-21T14:13:50;96031.69;;;24.21;37.17
73941;BME280;62294;48.554;10.202;2022-08-21T14:16:44;96031.72;;;24.57;36.63
73941;BME280;62294;48.554;10.202;2022-08-21T14:19:19;96028.34;;;24.38;37.35
73941;BME280;62294;48.554;10.202;2022-08-21T14:21:46;96025.25;;;24.53;37.24